British Holly — MCZN2 — position and weather

sailwx.info

Track history (hours):
 
Tides and Currents Weather Stations Pressure Air Temp Water Temp Dewpoint Dewpoint Depression Visibility Wind Speed Wind Dir Waves Ship Positions

British Holly

Last reported at 2014-Sep-01 00:00 UTC. Time now 2014-Sep-01 11:40 UTC.
Position N 16°12' E 116°06'.

Type: Tanker. MMSI: 235814000.

Wind from 150 at 14 knots

Waves 0.5 meters (2 feet), 4 second period

Barometer 1009.2 mb
Air temperature 29.0 ° C
Visibility: greater than 5.4 NM
Dewpoint 24.8 ° C
Water temperature 28.0 ° C

Date/timePositionNaut miles runAvg speedWind from/ knotsBaromVisibWave heightAir tempDewpointWater temp
2014-Sep-01 00:00N 16°12' E 116°06'5413.6 150 / 141009.2 5.4 0.529.024.828.0
2014-Aug-31 20:00N 15°30' E 115°30'15112.6 080 / 31007.8 5.4 28.025.227.0
2014-Aug-31 08:00N 13°36' E 113°48'   250 / 31006.7 5.4 1.027.024.126.0
2014-Aug-28 06:22N 01°15' E 104°05'1012.5
2014-Aug-28 05:32N 01°13' E 103°55'  
2014-Aug-25 02:19N 01°10' E 103°38'1 1.6
2014-Aug-25 01:30N 01°10' E 103°39'3 3.2
2014-Aug-25 00:30N 01°09' E 103°42'5 5.6
2014-Aug-24 23:33N 01°10' E 103°47'6 6.5
2014-Aug-24 22:33N 01°14' E 103°53'1 1.0
2014-Aug-24 21:30N 01°15' E 103°53'0 0.1
2014-Aug-24 20:33N 01°15' E 103°53'0 0.0
2014-Aug-24 19:30N 01°15' E 103°53'0 0.1
2014-Aug-24 18:33N 01°15' E 103°53'0 0.0
2014-Aug-24 17:33N 01°15' E 103°53'0 0.1
2014-Aug-24 16:33N 01°15' E 103°53'610.5
2014-Aug-24 16:00N 01°12' E 103°48'611.8 1011.0 5.4 28.025.228.0
2014-Aug-24 15:30N 01°15' E 103°53'0 0.1
2014-Aug-24 14:30N 01°15' E 103°53'0 0.0
2014-Aug-24 13:21N 01°15' E 103°53'0 0.0
2014-Aug-24 12:30N 01°15' E 103°53'0 0.0
2014-Aug-24 11:21N 01°15' E 103°53'0 0.0
2014-Aug-24 10:24N 01°15' E 103°53'0 0.0
2014-Aug-24 09:30N 01°15' E 103°53'0 0.0
2014-Aug-24 08:30N 01°15' E 103°53'0 0.2
2014-Aug-24 07:30N 01°15' E 103°53'0 0.1
2014-Aug-24 06:33N 01°15' E 103°53'0 0.1
2014-Aug-24 05:33N 01°15' E 103°53'0 0.1
2014-Aug-24 04:33N 01°15' E 103°53'0 0.2
2014-Aug-24 03:33N 01°15' E 103°53'0 0.0
2014-Aug-24 02:33N 01°15' E 103°53'0 0.0
2014-Aug-24 01:30N 01°15' E 103°53'0 0.0
2014-Aug-24 00:33N 01°15' E 103°53'0 0.1
2014-Aug-23 23:33N 01°15' E 103°53'0 0.1
2014-Aug-23 22:33N 01°15' E 103°53'0 0.0
2014-Aug-23 21:33N 01°15' E 103°53'0 0.0
2014-Aug-23 20:30N 01°15' E 103°53'0 0.1
2014-Aug-23 19:30N 01°15' E 103°53'  
Track history (hours):
 
Tides and Currents Weather Stations Pressure Air Temp Water Temp Dewpoint Dewpoint Depression Visibility Wind Speed Wind Dir Waves Ship Positions

British Holly

Last reported at 2014-Sep-01 00:00 UTC. Time now 2014-Sep-01 11:40 UTC.
Position N 16°12' E 116°06'.

Type: Tanker. MMSI: 235814000.

Wind from 150 at 14 knots

Waves 0.5 meters (2 feet), 4 second period

Barometer 1009.2 mb
Air temperature 29.0 ° C
Visibility: greater than 5.4 NM
Dewpoint 24.8 ° C
Water temperature 28.0 ° C

Date/timePositionNaut miles runAvg speedWind from/ knotsBaromVisibWave heightAir tempDewpointWater temp
2014-Sep-01 00:00N 16°12' E 116°06'5413.6 150 / 141009.2 5.4 0.529.024.828.0
2014-Aug-31 20:00N 15°30' E 115°30'15112.6 080 / 31007.8 5.4 28.025.227.0
2014-Aug-31 08:00N 13°36' E 113°48'   250 / 31006.7 5.4 1.027.024.126.0
2014-Aug-28 06:22N 01°15' E 104°05'1012.5
2014-Aug-28 05:32N 01°13' E 103°55'  
2014-Aug-25 02:19N 01°10' E 103°38'1 1.6
2014-Aug-25 01:30N 01°10' E 103°39'3 3.2
2014-Aug-25 00:30N 01°09' E 103°42'5 5.6
2014-Aug-24 23:33N 01°10' E 103°47'6 6.5
2014-Aug-24 22:33N 01°14' E 103°53'1 1.0
2014-Aug-24 21:30N 01°15' E 103°53'0 0.1
2014-Aug-24 20:33N 01°15' E 103°53'0 0.0
2014-Aug-24 19:30N 01°15' E 103°53'0 0.1
2014-Aug-24 18:33N 01°15' E 103°53'0 0.0
2014-Aug-24 17:33N 01°15' E 103°53'0 0.1
2014-Aug-24 16:33N 01°15' E 103°53'610.5
2014-Aug-24 16:00N 01°12' E 103°48'611.8 1011.0 5.4 28.025.228.0
2014-Aug-24 15:30N 01°15' E 103°53'0 0.1
2014-Aug-24 14:30N 01°15' E 103°53'0 0.0
2014-Aug-24 13:21N 01°15' E 103°53'0 0.0
2014-Aug-24 12:30N 01°15' E 103°53'0 0.0
2014-Aug-24 11:21N 01°15' E 103°53'0 0.0
2014-Aug-24 10:24N 01°15' E 103°53'0 0.0
2014-Aug-24 09:30N 01°15' E 103°53'0 0.0
2014-Aug-24 08:30N 01°15' E 103°53'0 0.2
2014-Aug-24 07:30N 01°15' E 103°53'0 0.1
2014-Aug-24 06:33N 01°15' E 103°53'0 0.1
2014-Aug-24 05:33N 01°15' E 103°53'0 0.1
2014-Aug-24 04:33N 01°15' E 103°53'0 0.2
2014-Aug-24 03:33N 01°15' E 103°53'0 0.0
2014-Aug-24 02:33N 01°15' E 103°53'0 0.0
2014-Aug-24 01:30N 01°15' E 103°53'0 0.0
2014-Aug-24 00:33N 01°15' E 103°53'0 0.1
2014-Aug-23 23:33N 01°15' E 103°53'0 0.1
2014-Aug-23 22:33N 01°15' E 103°53'0 0.0
2014-Aug-23 21:33N 01°15' E 103°53'0 0.0
2014-Aug-23 20:30N 01°15' E 103°53'0 0.1
2014-Aug-23 19:30N 01°15' E 103°53'  

Dump ship's entire track history